Time;durP1;ratioP1;P1;durP2;ratioP2;P2;SDS_P1;SDS_P2;PMS_P1;PMS_P2;Temp;Humidity;BMP_temperature;BMP_pressure;BME280_temperature;BME280_humidity;BME280_pressure;Samples;Min_cycle;Max_cycle;Signal;HPM_P1;HPM_P2
2021/11/19 00:01:18;;;;;;;40.10;18.35;;;11.90;99.90;;;;;;4936008;29;20044;-71
2021/11/19 00:03:44;;;;;;;50.13;19.73;;;11.90;99.90;;;;;;4935272;29;20139;-71
2021/11/19 00:06:10;;;;;;;46.22;19.80;;;11.90;99.90;;;;;;4918962;29;20110;-70
2021/11/19 00:08:37;;;;;;;50.70;19.65;;;11.90;99.90;;;;;;4936345;29;20049;-71
2021/11/19 00:11:07;;;;;;;42.50;19.80;;;11.90;99.90;;;;;;4935911;29;20122;-70
2021/11/19 00:13:33;;;;;;;48.17;20.83;;;11.90;99.90;;;;;;4935828;29;20378;-71
2021/11/19 00:15:59;;;;;;;43.25;20.08;;;11.90;99.90;;;;;;4935572;29;20465;-71
2021/11/19 00:18:25;;;;;;;36.47;18.63;;;11.90;99.90;;;;;;4935615;29;20036;-70
2021/11/19 00:20:51;;;;;;;37.58;17.88;;;11.90;99.90;;;;;;4918659;29;20035;-70
2021/11/19 00:23:18;;;;;;;42.42;18.13;;;12.00;99.90;;;;;;4935916;29;20042;-71
2021/11/19 00:25:44;;;;;;;35.22;16.85;;;12.00;99.90;;;;;;4936064;29;20123;-71
2021/11/19 00:28:11;;;;;;;37.35;17.52;;;12.00;99.90;;;;;;4935598;29;20034;-73
2021/11/19 00:30:38;;;;;;;35.47;17.10;;;12.00;99.90;;;;;;4935660;29;20130;-71
2021/11/19 00:33:05;;;;;;;36.60;16.92;;;11.90;99.90;;;;;;4935442;29;20042;-71
2021/11/19 00:35:33;;;;;;;29.38;16.15;;;12.00;99.90;;;;;;4935830;29;20059;-71
2021/11/19 00:37:59;;;;;;;39.58;17.35;;;12.00;99.90;;;;;;4935302;29;20050;-70
2021/11/19 00:40:56;;;;;;;36.47;17.58;;;12.00;99.90;;;;;;4935354;29;20722;-72
2021/11/19 00:43:23;;;;;;;33.38;17.17;;;12.00;99.90;;;;;;4922938;29;20043;-71
2021/11/19 00:45:50;;;;;;;36.38;17.65;;;12.00;99.90;;;;;;4935164;29;20118;-70
2021/11/19 00:48:17;;;;;;;40.58;18.00;;;12.00;99.90;;;;;;4934979;29;20028;-71
2021/11/19 00:50:54;;;;;;;41.60;19.63;;;12.10;99.90;;;;;;4935510;29;20056;-72
2021/11/19 00:53:20;;;;;;;;;;;12.00;99.90;;;;;;4935864;29;20039;-71
2021/11/19 00:55:46;;;;;;;42.40;18.33;;;12.00;99.90;;;;;;4935101;29;19921;-71
2021/11/19 00:58:12;;;;;;;43.58;18.50;;;12.00;99.90;;;;;;4934997;29;20499;-72
2021/11/19 01:00:45;;;;;;;36.70;19.00;;;12.10;99.90;;;;;;4934998;29;20110;-72
2021/11/19 01:03:11;;;;;;;44.65;20.17;;;12.10;99.90;;;;;;4934785;29;20044;-71
2021/11/19 01:05:38;;;;;;;41.28;18.83;;;12.10;99.90;;;;;;4935321;29;20047;-71
2021/11/19 01:08:05;;;;;;;44.13;20.42;;;12.10;99.90;;;;;;4934899;29;20035;-72
2021/11/19 01:10:35;;;;;;;47.90;20.88;;;12.10;99.90;;;;;;4934978;29;20474;-70
2021/11/19 01:13:01;;;;;;;46.28;21.45;;;12.10;99.90;;;;;;4934707;29;20046;-71
2021/11/19 01:15:47;;;;;;;44.63;20.48;;;12.00;99.90;;;;;;4933764;29;20024;-71
2021/11/19 01:18:29;;;;;;;41.35;20.52;;;12.00;99.90;;;;;;4934632;29;20096;-71
2021/11/19 01:20:58;;;;;;;41.50;20.80;;;12.00;99.90;;;;;;4933633;29;20418;-70
2021/11/19 01:23:26;;;;;;;40.05;20.80;;;12.00;99.90;;;;;;4934971;29;20031;-71
2021/11/19 01:25:55;;;;;;;38.90;20.58;;;12.10;99.90;;;;;;4934615;29;20031;-71
2021/11/19 01:28:21;;;;;;;44.30;21.42;;;12.10;99.90;;;;;;4934397;29;20066;-70
2021/11/19 01:30:59;;;;;;;46.33;20.85;;;12.00;99.90;;;;;;4934588;29;20035;-69
2021/11/19 01:33:26;;;;;;;40.30;20.55;;;12.10;99.90;;;;;;4934468;29;20115;-71
2021/11/19 01:35:52;;;;;;;47.90;21.92;;;12.10;99.90;;;;;;4934750;29;20020;-69
2021/11/19 01:38:19;;;;;;;41.67;20.25;;;12.00;99.90;;;;;;4934821;29;20051;-70
2021/11/19 01:40:48;;;;;;;41.33;20.25;;;12.00;99.90;;;;;;4934197;29;20138;-70
2021/11/19 01:43:14;;;;;;;44.78;21.52;;;12.10;99.90;;;;;;4934107;29;20063;-70
2021/11/19 01:45:46;;;;;;;44.75;20.27;;;12.10;99.90;;;;;;4934070;29;20051;-70
2021/11/19 01:48:15;;;;;;;46.85;21.67;;;12.10;99.90;;;;;;4917391;29;20056;-70
2021/11/19 01:50:54;;;;;;;47.97;21.02;;;12.00;99.90;;;;;;4934615;29;20087;-71
2021/11/19 01:53:26;;;;;;;38.85;19.50;;;12.00;99.90;;;;;;4934526;29;20370;-71
2021/11/19 01:56:12;;;;;;;37.92;19.48;;;12.10;99.90;;;;;;4933972;29;20107;-71
2021/11/19 01:58:43;;;;;;;39.15;19.98;;;12.10;99.90;;;;;;4933823;29;20032;-71
2021/11/19 02:01:19;;;;;;;42.75;19.98;;;12.10;99.90;;;;;;4917030;29;20131;-72
2021/11/19 02:03:51;;;;;;;34.75;17.80;;;12.20;99.90;;;;;;4933453;29;20477;-71
2021/11/19 02:06:30;;;;;;;36.67;18.85;;;12.20;99.90;;;;;;4934052;29;20035;-72
2021/11/19 02:08:58;;;;;;;34.28;18.00;;;12.20;99.90;;;;;;4917022;29;20123;-71
2021/11/19 02:11:48;;;;;;;29.95;17.50;;;12.20;99.90;;;;;;4934358;29;20024;-71
2021/11/19 02:14:24;;;;;;;33.63;16.55;;;12.20;99.90;;;;;;4933929;29;20071;-70
2021/11/19 02:16:56;;;;;;;32.90;16.98;;;12.20;99.90;;;;;;4933911;29;20449;-71
2021/11/19 02:19:28;;;;;;;27.80;15.65;;;12.30;99.90;;;;;;4933855;29;20337;-71
2021/11/19 02:21:55;;;;;;;25.02;15.25;;;12.20;99.90;;;;;;4917028;29;20353;-71
2021/11/19 02:24:26;;;;;;;30.05;16.10;;;12.20;99.90;;;;;;4933585;29;20046;-70
2021/11/19 02:27:13;;;;;;;34.17;15.57;;;12.20;99.90;;;;;;4935718;29;20044;-71
2021/11/19 02:29:45;;;;;;;29.15;14.45;;;12.30;99.90;;;;;;4940073;29;20038;-71
2021/11/19 02:32:14;;;;;;;30.65;15.88;;;12.20;99.90;;;;;;4940121;29;20032;-71
2021/11/19 02:34:39;;;;;;;29.63;14.60;;;12.20;99.90;;;;;;4939652;29;20036;-71
2021/11/19 02:37:24;;;;;;;30.52;14.43;;;12.30;99.90;;;;;;4958157;28;20144;-71
2021/11/19 02:40:04;;;;;;;25.73;14.45;;;12.30;99.90;;;;;;4959127;29;20098;-70
2021/11/19 02:42:36;;;;;;;28.08;13.90;;;12.30;99.90;;;;;;4958715;29;20035;-71
2021/11/19 02:45:12;;;;;;;27.75;16.27;;;12.30;99.90;;;;;;4959049;28;20038;-71
2021/11/19 02:47:38;;;;;;;28.45;15.15;;;12.20;99.90;;;;;;4959386;28;20087;-71
2021/11/19 02:50:05;;;;;;;30.42;15.75;;;12.30;99.90;;;;;;4959123;28;20035;-71
2021/11/19 02:52:35;;;;;;;26.05;14.27;;;12.30;99.90;;;;;;4959114;29;20035;-70
2021/11/19 02:55:05;;;;;;;30.45;15.82;;;12.30;99.90;;;;;;4958931;28;20031;-70
2021/11/19 02:57:31;;;;;;;30.33;15.85;;;12.20;99.90;;;;;;4942185;29;20465;-71
2021/11/19 02:59:57;;;;;;;31.00;15.88;;;12.30;99.90;;;;;;4958953;29;20035;-71
2021/11/19 03:02:27;;;;;;;26.58;15.20;;;12.30;99.90;;;;;;4959573;28;20094;-71
2021/11/19 03:04:58;;;;;;;25.52;14.82;;;12.30;99.90;;;;;;4958870;28;20050;-71
2021/11/19 03:07:24;;;;;;;25.33;15.23;;;12.30;99.90;;;;;;4958774;28;20066;-71
2021/11/19 03:09:58;;;;;;;28.27;14.45;;;12.30;99.90;;;;;;4958940;29;20086;-71
2021/11/19 03:12:26;;;;;;;26.48;13.30;;;12.40;99.90;;;;;;4958963;29;20028;-71
2021/11/19 03:14:54;;;;;;;27.03;14.17;;;12.40;99.90;;;;;;4958712;28;20038;-70
2021/11/19 03:17:22;;;;;;;24.50;13.18;;;12.50;99.90;;;;;;4959021;28;20102;-71
2021/11/19 03:19:48;;;;;;;21.70;13.50;;;12.50;99.90;;;;;;4938799;29;20032;-71
2021/11/19 03:22:18;;;;;;;26.40;13.57;;;12.50;99.90;;;;;;4954562;29;20114;-71
2021/11/19 03:24:44;;;;;;;21.95;14.10;;;12.50;99.90;;;;;;4958617;29;20129;-70
2021/11/19 03:27:11;;;;;;;23.33;14.18;;;12.50;99.90;;;;;;4957016;28;20046;-71
2021/11/19 03:29:38;;;;;;;39.28;15.32;;;12.50;99.90;;;;;;4920983;29;20630;-72
2021/11/19 03:32:05;;;;;;;24.03;13.77;;;12.50;99.90;;;;;;4920720;29;20036;-71
2021/11/19 03:34:30;;;;;;;26.77;15.32;;;12.50;99.90;;;;;;4920615;29;20055;-71
2021/11/19 03:36:56;;;;;;;27.25;14.75;;;12.50;99.90;;;;;;4920422;29;20150;-71
2021/11/19 03:39:25;;;;;;;21.75;13.65;;;12.50;99.90;;;;;;4917283;29;20047;-71
2021/11/19 03:41:51;;;;;;;25.50;13.80;;;12.50;99.90;;;;;;4917520;29;20036;-71
2021/11/19 03:44:30;;;;;;;25.95;15.48;;;12.50;99.90;;;;;;4917951;29;20028;-70
2021/11/19 03:47:05;;;;;;;27.63;14.10;;;12.40;99.90;;;;;;4916348;29;20446;-71
2021/11/19 03:49:30;;;;;;;25.20;13.60;;;12.40;99.90;;;;;;4917526;29;20051;-71
2021/11/19 03:52:10;;;;;;;23.52;13.68;;;12.30;99.90;;;;;;4917270;29;20032;-71
2021/11/19 03:54:38;;;;;;;28.85;14.63;;;12.40;99.90;;;;;;4900658;29;20465;-71
2021/11/19 03:57:04;;;;;;;;;;;12.40;99.90;;;;;;4917467;29;20493;-71
2021/11/19 03:59:29;;;;;;;29.60;15.32;;;12.40;99.90;;;;;;4917471;29;20014;-71
2021/11/19 04:01:57;;;;;;;25.33;14.55;;;12.40;99.90;;;;;;4917027;29;20060;-71
2021/11/19 04:04:26;;;;;;;32.53;14.82;;;12.40;99.90;;;;;;4916727;29;20040;-72
2021/11/19 04:06:52;;;;;;;29.25;16.40;;;12.40;99.90;;;;;;4917003;29;20043;-70
2021/11/19 04:09:19;;;;;;;25.02;14.75;;;12.30;99.90;;;;;;4916959;29;20046;-71
2021/11/19 04:11:45;;;;;;;29.45;15.95;;;12.30;99.90;;;;;;4917025;29;20073;-72
2021/11/19 04:14:11;;;;;;;28.88;14.60;;;12.30;99.90;;;;;;4917239;29;20070;-71
2021/11/19 04:16:46;;;;;;;29.65;15.13;;;12.40;99.90;;;;;;4916870;29;20474;-73
2021/11/19 04:19:14;;;;;;;33.13;15.90;;;12.40;99.90;;;;;;4916721;29;20036;-72
2021/11/19 04:21:41;;;;;;;28.17;14.60;;;12.30;99.90;;;;;;4916749;29;20028;-72
2021/11/19 04:24:09;;;;;;;28.70;16.30;;;12.40;99.90;;;;;;4916587;29;20035;-71
2021/11/19 04:26:35;;;;;;;;;;;12.30;99.90;;;;;;4917447;29;20032;-71
2021/11/19 04:29:01;;;;;;;31.05;15.43;;;12.20;99.90;;;;;;4915724;29;19967;-71
2021/11/19 04:31:29;;;;;;;28.58;16.67;;;12.30;99.90;;;;;;4916748;29;20032;-71
2021/11/19 04:33:55;;;;;;;31.45;16.20;;;12.20;99.90;;;;;;4916656;29;20040;-71
2021/11/19 04:36:21;;;;;;;31.15;15.45;;;12.30;99.90;;;;;;4916362;29;20367;-70
2021/11/19 04:38:47;;;;;;;33.58;16.70;;;12.30;99.90;;;;;;4916317;29;20035;-72
2021/11/19 04:41:14;;;;;;;31.95;17.27;;;12.40;99.90;;;;;;4916951;29;20020;-72
2021/11/19 04:43:40;;;;;;;42.33;18.08;;;12.40;99.90;;;;;;4916173;29;20040;-71
2021/11/19 04:46:08;;;;;;;35.03;18.40;;;12.40;99.90;;;;;;4916310;29;20043;-72
2021/11/19 04:48:34;;;;;;;34.83;18.42;;;12.30;99.90;;;;;;4916623;29;20308;-71
2021/11/19 04:51:03;;;;;;;42.58;18.73;;;12.30;99.90;;;;;;4916042;29;20124;-71
2021/11/19 04:53:29;;;;;;;35.08;20.10;;;12.30;99.90;;;;;;4916584;29;20068;-71
2021/11/19 04:55:55;;;;;;;35.95;19.13;;;12.30;99.90;;;;;;4916196;29;20064;-71
2021/11/19 04:58:21;;;;;;;39.20;20.42;;;12.30;99.90;;;;;;4916074;29;20037;-70
2021/11/19 05:01:00;;;;;;;42.15;21.70;;;12.10;99.90;;;;;;4916108;29;20104;-71
2021/11/19 05:03:27;;;;;;;41.13;21.80;;;12.20;99.90;;;;;;4915542;29;20043;-71
2021/11/19 05:05:53;;;;;;;38.88;22.52;;;12.20;99.90;;;;;;4915851;29;20028;-71
2021/11/19 05:08:20;;;;;;;40.58;22.13;;;12.20;99.90;;;;;;4916375;29;20046;-72
2021/11/19 05:10:48;;;;;;;40.03;21.13;;;12.30;99.90;;;;;;4899051;29;20466;-72
2021/11/19 05:13:15;;;;;;;;;;;12.30;99.90;;;;;;4916283;29;20416;-72
2021/11/19 05:15:43;;;;;;;46.55;21.95;;;12.30;99.90;;;;;;4915866;29;19947;-72
2021/11/19 05:18:09;;;;;;;;;;;12.30;99.90;;;;;;4915945;29;20028;-70
2021/11/19 05:20:35;;;;;;;50.20;22.98;;;12.30;99.90;;;;;;4916202;29;20302;-72
2021/11/19 05:23:01;;;;;;;41.95;22.38;;;12.30;99.90;;;;;;4915461;29;20032;-71
2021/11/19 05:25:29;;;;;;;48.75;23.40;;;12.30;99.90;;;;;;4915595;29;20028;-70
2021/11/19 05:27:56;;;;;;;43.97;22.60;;;12.30;99.90;;;;;;4915820;29;20040;-71
2021/11/19 05:30:22;;;;;;;49.30;22.92;;;12.30;99.90;;;;;;4898730;29;20056;-72
2021/11/19 05:32:48;;;;;;;44.13;23.23;;;12.30;99.90;;;;;;4915519;29;20070;-71
2021/11/19 05:35:15;;;;;;;45.55;23.48;;;12.30;99.90;;;;;;4915934;29;20024;-71
2021/11/19 05:37:41;;;;;;;45.83;22.90;;;12.40;99.90;;;;;;4915416;29;20067;-72
2021/11/19 05:40:10;;;;;;;49.28;24.90;;;12.40;99.90;;;;;;4915740;29;20047;-72
2021/11/19 05:42:36;;;;;;;49.35;24.08;;;12.30;99.90;;;;;;4915497;29;20100;-72
2021/11/19 05:45:03;;;;;;;53.40;25.52;;;12.30;99.90;;;;;;4915426;29;20123;-72
2021/11/19 05:47:29;;;;;;;46.83;23.67;;;12.30;99.90;;;;;;4915663;29;20031;-71
2021/11/19 05:49:59;;;;;;;49.35;25.02;;;12.30;99.90;;;;;;4915351;29;20088;-71
2021/11/19 05:52:28;;;;;;;46.95;23.20;;;12.20;99.90;;;;;;4915402;29;20048;-71
2021/11/19 05:54:54;;;;;;;45.33;24.20;;;12.30;99.90;;;;;;4914155;29;20066;-71
2021/11/19 05:57:20;;;;;;;48.47;24.30;;;12.20;99.90;;;;;;4915185;29;20124;-71
2021/11/19 05:59:45;;;;;;;47.72;25.00;;;12.30;99.90;;;;;;4915017;29;20024;-73
2021/11/19 06:02:17;;;;;;;51.22;24.85;;;12.30;99.90;;;;;;4914885;29;20028;-73
2021/11/19 06:04:43;;;;;;;51.58;25.85;;;12.30;99.90;;;;;;4914782;29;20520;-71
2021/11/19 06:07:08;;;;;;;53.25;26.23;;;12.40;99.90;;;;;;4915003;29;20040;-72
2021/11/19 06:09:36;;;;;;;52.40;26.15;;;12.40;99.90;;;;;;4914884;29;20122;-72
2021/11/19 06:12:03;;;;;;;;;;;12.40;99.90;;;;;;4915406;29;20036;-71
2021/11/19 06:14:37;;;;;;;51.27;26.33;;;12.30;99.90;;;;;;4915317;29;19907;-71
2021/11/19 06:17:10;;;;;;;53.97;27.10;;;12.40;99.90;;;;;;4914910;29;20024;-71
2021/11/19 06:19:40;;;;;;;47.45;25.02;;;12.30;99.90;;;;;;4915016;29;20470;-72
2021/11/19 06:22:32;;;;;;;62.72;27.60;;;12.30;99.90;;;;;;4914857;29;20032;-72
2021/11/19 06:24:58;;;;;;;51.97;25.30;;;12.30;99.90;;;;;;4914887;29;20163;-72
2021/11/19 06:27:31;;;;;;;47.40;25.50;;;12.40;99.90;;;;;;4914723;29;20056;-71
2021/11/19 06:29:58;;;;;;;58.40;27.50;;;12.40;99.90;;;;;;4897643;29;20040;-70
2021/11/19 06:32:25;;;;;;;49.67;26.75;;;12.40;99.90;;;;;;4914925;29;20027;-73
2021/11/19 06:34:51;;;;;;;51.05;26.98;;;12.40;99.90;;;;;;4914683;29;20698;-72
2021/11/19 06:37:16;;;;;;;54.15;26.48;;;12.40;99.90;;;;;;4914455;29;20036;-71
2021/11/19 06:39:42;;;;;;;51.25;25.85;;;12.40;99.90;;;;;;4914398;29;20367;-72
2021/11/19 06:42:10;;;;;;;50.60;26.60;;;12.40;99.90;;;;;;4914413;29;20083;-73
2021/11/19 06:44:37;;;;;;;54.17;28.13;;;12.50;99.90;;;;;;4915137;29;20068;-72
2021/11/19 06:47:04;;;;;;;52.40;26.10;;;12.40;99.90;;;;;;4914422;29;20142;-72
2021/11/19 06:49:29;;;;;;;56.80;27.17;;;12.40;99.90;;;;;;4914531;29;20052;-74
2021/11/19 06:51:55;;;;;;;50.28;25.98;;;12.50;99.90;;;;;;4914617;29;20028;-72
2021/11/19 06:54:21;;;;;;;54.67;27.17;;;12.60;99.90;;;;;;4913661;29;20472;-73
2021/11/19 06:56:46;;;;;;;49.42;27.20;;;12.60;99.90;;;;;;4914299;29;20028;-71
2021/11/19 06:59:13;;;;;;;53.38;26.70;;;12.60;99.90;;;;;;4914721;29;20028;-73
2021/11/19 07:01:39;;;;;;;50.45;26.13;;;12.60;99.90;;;;;;4914568;29;20032;-72
2021/11/19 07:04:05;;;;;;;46.50;24.88;;;12.50;99.90;;;;;;4914002;29;20052;-73
2021/11/19 07:06:31;;;;;;;50.72;27.00;;;12.60;99.90;;;;;;4914565;29;20068;-73
2021/11/19 07:08:58;;;;;;;52.95;29.38;;;12.60;99.90;;;;;;4898184;29;20071;-73
2021/11/19 07:11:25;;;;;;;47.08;25.58;;;12.60;99.90;;;;;;4914867;29;20032;-79
2021/11/19 07:13:53;;;;;;;53.25;26.67;;;12.60;99.90;;;;;;4915505;29;20036;-80
2021/11/19 07:16:20;;;;;;;49.10;25.58;;;12.60;99.90;;;;;;4918538;29;20028;-78
2021/11/19 07:18:46;;;;;;;46.63;25.27;;;12.70;99.90;;;;;;4901679;29;20064;-78
2021/11/19 07:21:12;;;;;;;43.42;23.63;;;12.70;99.90;;;;;;4918010;29;20048;-80
2021/11/19 07:23:37;;;;;;;182.02;35.40;;;12.70;99.90;;;;;;4917632;29;20024;-80
2021/11/19 07:26:04;;;;;;;54.58;23.63;;;12.70;99.90;;;;;;4917034;29;20028;-81
2021/11/19 07:28:30;;;;;;;46.83;23.23;;;12.80;99.90;;;;;;4918942;29;20115;-83
2021/11/19 07:30:59;;;;;;;42.20;22.48;;;12.70;99.90;;;;;;4918384;29;20193;-80
2021/11/19 07:33:26;;;;;;;41.03;23.33;;;12.70;99.90;;;;;;4917729;29;20036;-77
2021/11/19 07:35:52;;;;;;;41.35;22.20;;;12.70;99.90;;;;;;4917954;29;20031;-81
2021/11/19 07:38:21;;;;;;;41.00;21.38;;;12.70;99.90;;;;;;4917586;29;20016;-72
2021/11/19 07:40:47;;;;;;;;;;;12.70;99.90;;;;;;4917413;29;20051;-78
2021/11/19 07:43:13;;;;;;;33.67;19.70;;;12.80;99.90;;;;;;4917061;29;20337;-78
2021/11/19 07:45:40;;;;;;;32.75;18.52;;;12.90;99.90;;;;;;4917028;29;20036;-78
2021/11/19 07:48:15;;;;;;;35.35;19.90;;;12.90;99.90;;;;;;4925565;29;20038;-75
2021/11/19 07:50:44;;;;;;;32.00;18.95;;;12.90;99.90;;;;;;4936672;29;20099;-77
2021/11/19 07:53:11;;;;;;;36.05;17.48;;;12.90;99.90;;;;;;4936041;29;20050;-77
2021/11/19 07:55:37;;;;;;;33.92;18.00;;;12.90;99.90;;;;;;4936204;29;20064;-76
2021/11/19 07:58:03;;;;;;;26.52;15.65;;;12.90;99.90;;;;;;4935727;29;20537;-78
2021/11/19 08:00:33;;;;;;;30.13;17.13;;;12.90;99.90;;;;;;4936004;29;20043;-77
2021/11/19 08:02:58;;;;;;;39.40;23.33;;;13.00;99.90;;;;;;4932515;29;20048;-79
2021/11/19 08:05:24;;;;;;;28.73;16.17;;;13.00;99.90;;;;;;4917133;29;20028;-78
2021/11/19 08:07:51;;;;;;;25.42;15.65;;;13.00;99.90;;;;;;4916523;29;20127;-76
2021/11/19 08:10:17;;;;;;;26.77;16.27;;;13.10;99.90;;;;;;4916837;29;20126;-78
2021/11/19 08:12:44;;;;;;;28.85;15.98;;;13.10;99.90;;;;;;4916200;29;20080;-77
2021/11/19 08:15:12;;;;;;;30.92;15.18;;;13.10;99.90;;;;;;4916534;29;20055;-78
2021/11/19 08:17:44;;;;;;;26.67;15.45;;;13.10;99.90;;;;;;4900035;29;20139;-76
2021/11/19 08:20:15;;;;;;;23.67;15.10;;;13.20;99.90;;;;;;4916248;29;20032;-77
2021/11/19 08:22:41;;;;;;;25.17;14.45;;;13.20;99.90;;;;;;4916113;29;20540;-71
2021/11/19 08:25:09;;;;;;;25.63;14.95;;;13.10;99.90;;;;;;4915625;29;20032;-71
2021/11/19 08:27:38;;;;;;;26.50;15.35;;;13.20;99.90;;;;;;4899515;29;20119;-74
2021/11/19 08:30:10;;;;;;;25.90;14.63;;;13.20;99.90;;;;;;4916208;29;20032;-73
2021/11/19 08:32:35;;;;;;;25.38;14.50;;;13.10;99.90;;;;;;4899620;29;20036;-80
2021/11/19 08:35:02;;;;;;;24.05;15.30;;;13.10;99.90;;;;;;4899176;29;20047;-77
2021/11/19 08:37:27;;;;;;;27.90;15.02;;;13.10;99.90;;;;;;4916154;29;20092;-78
2021/11/19 08:39:53;;;;;;;31.02;15.68;;;13.20;99.90;;;;;;4916057;29;20032;-80
2021/11/19 08:42:21;;;;;;;29.10;16.00;;;13.10;99.90;;;;;;4915586;29;20514;-72
2021/11/19 08:44:47;;;;;;;26.05;16.25;;;13.00;99.90;;;;;;4899074;29;20056;-80
2021/11/19 08:47:18;;;;;;;28.08;14.50;;;13.10;99.90;;;;;;4915892;29;20024;-82
2021/11/19 08:49:45;;;;;;;28.90;16.05;;;13.20;99.90;;;;;;4915577;29;20107;-81
2021/11/19 08:52:14;;;;;;;27.83;15.95;;;13.10;99.90;;;;;;4899352;29;20478;-79
2021/11/19 08:54:40;;;;;;;29.65;15.75;;;13.20;99.90;;;;;;4898954;29;20648;-80
2021/11/19 08:57:10;;;;;;;26.05;15.30;;;13.10;99.90;;;;;;4915395;29;20079;-81
2021/11/19 08:59:38;;;;;;;24.58;15.05;;;13.20;99.90;;;;;;4915899;29;20034;-79
2021/11/19 09:02:09;;;;;;;28.45;16.42;;;13.20;99.90;;;;;;4915429;29;20037;-74
2021/11/19 09:04:35;;;;;;;30.95;17.95;;;13.10;99.90;;;;;;4930681;29;20505;-79
2021/11/19 09:07:02;;;;;;;27.80;15.70;;;13.10;99.90;;;;;;4934488;29;20036;-77
2021/11/19 09:09:29;;;;;;;26.17;16.20;;;13.20;99.90;;;;;;4934359;29;20048;-79
2021/11/19 09:11:55;;;;;;;28.25;15.90;;;13.10;99.90;;;;;;4934186;29;20055;-80
2021/11/19 09:14:23;;;;;;;27.48;15.60;;;13.00;99.90;;;;;;4934779;29;20317;-75
2021/11/19 09:17:18;;;;;;;31.13;16.70;;;13.10;99.90;;;;;;4934222;29;20114;-80
2021/11/19 09:20:09;;;;;;;23.52;15.10;;;13.10;99.90;;;;;;4934268;29;20023;-81
2021/11/19 09:22:41;;;;;;;26.73;16.00;;;13.10;99.90;;;;;;4882134;29;20087;-79
2021/11/19 09:25:14;;;;;;;29.73;16.70;;;13.10;99.90;;;;;;4934094;29;20043;-79
2021/11/19 09:27:40;;;;;;;29.02;16.15;;;13.10;99.90;;;;;;4917379;29;20042;-77
2021/11/19 09:30:16;;;;;;;26.17;16.58;;;13.20;99.90;;;;;;4917111;29;20031;-78
2021/11/19 09:32:50;;;;;;;28.40;16.05;;;13.20;99.90;;;;;;4934460;29;20039;-79
2021/11/19 09:35:19;;;;;;;26.67;15.07;;;13.30;99.90;;;;;;4934225;29;20043;-79
2021/11/19 09:37:49;;;;;;;25.48;15.65;;;13.30;99.90;;;;;;4933620;29;20084;-81
2021/11/19 09:40:17;;;;;;;23.73;14.52;;;13.30;99.90;;;;;;4933903;29;20055;-75
2021/11/19 09:42:49;;;;;;;28.73;16.02;;;13.40;99.90;;;;;;4933744;29;20176;-77
2021/11/19 09:45:15;;;;;;;24.60;13.65;;;13.30;99.90;;;;;;4934082;29;20042;-79
2021/11/19 09:47:55;;;;;;;20.90;14.23;;;13.40;99.90;;;;;;4934183;29;20032;-75
2021/11/19 09:50:45;;;;;;;24.85;13.98;;;13.40;99.90;;;;;;4934268;29;20028;-78
2021/11/19 09:53:58;;;;;;;21.85;13.88;;;13.40;99.90;;;;;;4935099;29;20134;-73
2021/11/19 09:56:30;;;;;;;37.78;23.05;;;13.50;99.90;;;;;;4917431;29;20051;-80
2021/11/19 09:59:33;;;;;;;22.52;13.73;;;13.50;99.90;;;;;;4934085;29;20485;-80
2021/11/19 10:02:11;;;;;;;23.98;13.50;;;13.50;99.90;;;;;;4934125;29;20091;-83
2021/11/19 10:05:14;;;;;;;25.88;14.75;;;13.50;99.90;;;;;;4933395;29;20048;-81
2021/11/19 10:08:00;;;;;;;19.75;12.98;;;13.50;99.90;;;;;;4933893;29;20028;-78
2021/11/19 10:10:51;;;;;;;21.17;13.90;;;13.50;99.90;;;;;;4933899;29;20028;-80
2021/11/19 10:13:41;;;;;;;25.90;15.27;;;13.60;99.90;;;;;;4933853;29;20028;-80
2021/11/19 10:16:13;;;;;;;23.27;13.98;;;13.50;99.90;;;;;;4933477;29;20031;-77
2021/11/19 10:19:19;;;;;;;22.38;14.15;;;13.60;99.90;;;;;;4933620;29;20035;-78
2021/11/19 10:22:00;;;;;;;26.45;14.52;;;13.60;99.90;;;;;;4904097;29;20099;-77
2021/11/19 10:24:40;;;;;;;27.00;13.70;;;13.60;99.90;;;;;;4933404;29;20040;-74
2021/11/19 10:27:11;;;;;;;25.15;14.07;;;13.50;99.90;;;;;;4932944;29;20446;-77
2021/11/19 10:29:44;;;;;;;27.25;15.38;;;13.60;99.90;;;;;;4933766;29;20044;-80
2021/11/19 10:32:14;;;;;;;21.35;13.80;;;13.60;99.90;;;;;;4933568;29;20051;-79
2021/11/19 10:34:43;;;;;;;24.85;14.65;;;13.60;99.90;;;;;;4933229;29;20047;-79
2021/11/19 10:37:28;;;;;;;24.98;14.52;;;13.60;99.90;;;;;;4932944;29;20529;-77
2021/11/19 10:40:36;;;;;;;23.98;15.35;;;13.60;99.90;;;;;;4932800;29;20135;-79
2021/11/19 10:43:33;;;;;;;28.02;15.73;;;13.60;99.90;;;;;;4890350;29;20042;-75
2021/11/19 10:46:32;;;;;;;24.45;14.55;;;13.60;99.90;;;;;;4915811;29;20115;-78
2021/11/19 10:49:15;;;;;;;31.33;16.48;;;13.60;99.90;;;;;;4935695;29;20024;-77
2021/11/19 10:52:05;;;;;;;28.30;15.35;;;13.60;99.90;;;;;;4936835;29;20034;-78
2021/11/19 10:54:36;;;;;;;29.25;16.67;;;13.60;99.90;;;;;;4936688;29;20024;-77
2021/11/19 10:57:27;;;;;;;26.25;15.50;;;13.50;99.90;;;;;;4919734;29;20023;-77
2021/11/19 11:00:08;;;;;;;28.48;15.30;;;13.60;99.90;;;;;;4936446;29;20038;-75
2021/11/19 11:02:54;;;;;;;29.08;16.40;;;13.60;99.90;;;;;;4936941;29;20466;-76
2021/11/19 11:05:32;;;;;;;24.27;14.75;;;13.60;99.90;;;;;;4917903;29;20064;-79
2021/11/19 11:08:20;;;;;;;24.70;15.07;;;13.60;99.90;;;;;;4917301;29;20091;-78
2021/11/19 11:10:45;;;;;;;27.38;14.93;;;13.70;99.90;;;;;;4900624;29;20029;-74
2021/11/19 11:13:29;;;;;;;24.23;14.95;;;13.80;99.90;;;;;;4917278;29;20096;-79
2021/11/19 11:15:58;;;;;;;26.98;14.77;;;13.80;99.90;;;;;;4917501;29;20125;-76
2021/11/19 11:18:29;;;;;;;25.33;14.43;;;13.80;99.90;;;;;;4900740;29;20095;-75
2021/11/19 11:20:57;;;;;;;23.92;14.02;;;13.90;99.90;;;;;;4917604;29;20469;-75
2021/11/19 11:23:26;;;;;;;26.92;16.02;;;13.80;99.90;;;;;;4900853;29;20048;-73
2021/11/19 11:26:12;;;;;;;24.95;14.80;;;13.80;99.90;;;;;;4917216;29;20025;-74
2021/11/19 11:28:43;;;;;;;28.42;14.90;;;14.00;99.90;;;;;;4917208;29;20048;-74
2021/11/19 11:31:33;;;;;;;23.88;14.50;;;14.00;99.90;;;;;;4916872;29;20035;-74
2021/11/19 11:34:13;;;;;;;23.05;13.98;;;14.00;99.90;;;;;;4899979;29;20028;-73
2021/11/19 11:36:45;;;;;;;24.70;15.43;;;14.00;99.90;;;;;;4916983;29;20056;-71
2021/11/19 11:39:15;;;;;;;26.30;14.52;;;14.00;99.90;;;;;;4916753;29;20043;-72
2021/11/19 11:41:46;;;;;;;27.83;13.90;;;14.00;99.90;;;;;;4917307;29;20035;-73
2021/11/19 11:44:19;;;;;;;28.15;14.70;;;14.00;99.90;;;;;;4916952;29;20048;-71
2021/11/19 11:46:47;;;;;;;33.22;16.23;;;14.10;99.90;;;;;;4916747;29;20063;-70
2021/11/19 11:49:32;;;;;;;26.75;15.52;;;14.00;99.90;;;;;;4916816;29;20032;-71
2021/11/19 11:52:28;;;;;;;24.95;15.75;;;13.90;99.90;;;;;;4916615;29;20036;-71
2021/11/19 11:55:12;;;;;;;29.30;15.75;;;14.00;99.90;;;;;;4916771;29;20036;-71
2021/11/19 11:57:52;;;;;;;28.52;15.88;;;13.90;99.90;;;;;;4916546;29;20537;-71
2021/11/19 12:00:36;;;;;;;26.73;16.00;;;14.00;99.90;;;;;;4915472;29;20036;-72
2021/11/19 12:03:45;;;;;;;27.33;14.93;;;13.90;99.90;;;;;;4919281;29;20367;-73
2021/11/19 12:06:20;;;;;;;29.17;16.65;;;14.00;99.90;;;;;;4935174;29;20119;-72
2021/11/19 12:08:57;;;;;;;24.48;14.90;;;13.80;99.90;;;;;;4934922;29;20020;-72
2021/11/19 12:11:36;;;;;;;23.58;13.95;;;13.80;99.90;;;;;;4935633;29;20103;-71
2021/11/19 12:14:10;;;;;;;21.65;13.98;;;14.10;99.90;;;;;;4935599;29;20050;-71
2021/11/19 12:17:01;;;;;;;28.60;16.67;;;14.30;99.90;;;;;;4918079;29;20024;-70
2021/11/19 12:19:44;;;;;;;25.45;14.68;;;14.20;99.80;;;;;;4934942;29;20111;-72
2021/11/19 12:22:32;;;;;;;29.92;16.98;;;14.10;99.70;;;;;;4934907;29;20044;-77
2021/11/19 12:25:38;;;;;;;29.05;14.48;;;14.00;99.90;;;;;;4935194;29;20044;-75
2021/11/19 12:28:19;;;;;;;26.20;14.68;;;13.90;99.90;;;;;;4935214;29;20055;-75
2021/11/19 12:30:53;;;;;;;25.35;16.25;;;13.90;99.90;;;;;;4935061;29;20040;-78
2021/11/19 12:33:22;;;;;;;23.90;14.75;;;13.90;99.90;;;;;;4935037;29;20028;-72
2021/11/19 12:35:54;;;;;;;31.40;16.92;;;13.90;99.90;;;;;;4934941;29;20038;-77
2021/11/19 12:38:25;;;;;;;33.92;16.55;;;13.90;99.90;;;;;;4935212;29;20485;-77
2021/11/19 12:40:51;;;;;;;28.20;15.40;;;13.80;99.90;;;;;;4934583;29;20032;-78
2021/11/19 12:43:40;;;;;;;26.63;15.60;;;13.90;99.90;;;;;;4934836;29;20036;-78
2021/11/19 12:46:30;;;;;;;32.03;15.55;;;13.90;99.90;;;;;;4934781;29;20036;-78
2021/11/19 12:49:26;;;;;;;24.92;14.88;;;13.90;99.80;;;;;;4917373;29;20042;-76
2021/11/19 12:52:03;;;;;;;29.92;16.13;;;13.90;99.90;;;;;;4934596;29;20090;-73